AAL2923 KSRQ-KCLT
Flight info
| Callsign | AAL2923 |
|---|---|
| Flight time | 1h 25m |
| Altitude | 37000 |
| Route | TIDES1 CAMJO TWINS PONZE BANKR5 |
| Aircraft | A320/M-SDE3FGHIRWY/LB1 |
Departure
| Time | 2026-05-04 23:57 |
|---|---|
| Airport | Sarasota Bradenton International Airport (KSRQ) |
Arrival
| Time | 2026-05-05 01:22 |
|---|---|
| Airport | Charlotte Douglas International Airport (KCLT) |
| Time | Latitude | Longitude | Altitude | Speed | Heading |
|---|---|---|---|---|---|
| 2026-05-04 22:55 | 27.38880 | -82.55312 | 31 ft | 0 kts | 278° |
| 2026-05-04 23:41 | 27.38879 | -82.55304 | 31 ft | 4 kts | 278° |
| 2026-05-04 23:41 | 27.38876 | -82.55276 | 31 ft | 1 kts | 278° |
| 2026-05-04 23:41 | 27.38872 | -82.55250 | 31 ft | 4 kts | 285° |
| 2026-05-04 23:42 | 27.38865 | -82.55227 | 31 ft | 3 kts | 292° |
| 2026-05-04 23:42 | 27.38860 | -82.55213 | 31 ft | 0 kts | 292° |
| 2026-05-04 23:44 | 27.38866 | -82.55193 | 31 ft | 5 kts | 110° |
| 2026-05-04 23:45 | 27.38845 | -82.55146 | 31 ft | 8 kts | 108° |
| 2026-05-04 23:45 | 27.38824 | -82.55081 | 31 ft | 9 kts | 110° |
| 2026-05-04 23:45 | 27.38804 | -82.55008 | 31 ft | 8 kts | 98° |
| 2026-05-04 23:45 | 27.38803 | -82.54956 | 31 ft | 5 kts | 89° |
| 2026-05-04 23:46 | 27.38804 | -82.54947 | 31 ft | 0 kts | 83° |
| 2026-05-04 23:50 | 27.38804 | -82.54946 | 31 ft | 1 kts | 83° |
| 2026-05-04 23:50 | 27.38823 | -82.54901 | 30 ft | 12 kts | 27° |
| 2026-05-04 23:50 | 27.38909 | -82.54962 | 31 ft | 19 kts | 314° |
| 2026-05-04 23:51 | 27.39009 | -82.55072 | 30 ft | 21 kts | 315° |
| 2026-05-04 23:51 | 27.39120 | -82.55199 | 30 ft | 24 kts | 313° |
| 2026-05-04 23:51 | 27.39244 | -82.55341 | 30 ft | 27 kts | 315° |
| 2026-05-04 23:51 | 27.39352 | -82.55469 | 30 ft | 23 kts | 313° |
| 2026-05-04 23:52 | 27.39466 | -82.55601 | 30 ft | 25 kts | 315° |
| 2026-05-04 23:52 | 27.39592 | -82.55742 | 31 ft | 27 kts | 315° |
| 2026-05-04 23:52 | 27.39709 | -82.55877 | 31 ft | 16 kts | 314° |
| 2026-05-04 23:52 | 27.39791 | -82.55970 | 30 ft | 18 kts | 314° |
| 2026-05-04 23:53 | 27.39886 | -82.56081 | 30 ft | 21 kts | 314° |
| 2026-05-04 23:53 | 27.39995 | -82.56204 | 30 ft | 24 kts | 314° |
| 2026-05-04 23:53 | 27.40114 | -82.56341 | 31 ft | 26 kts | 315° |
| 2026-05-04 23:53 | 27.40241 | -82.56487 | 31 ft | 25 kts | 316° |
| 2026-05-04 23:54 | 27.40302 | -82.56533 | 31 ft | 0 kts | 357° |
| 2026-05-04 23:55 | 27.40306 | -82.56538 | 31 ft | 3 kts | 321° |
| 2026-05-04 23:55 | 27.40347 | -82.56606 | 31 ft | 14 kts | 317° |
| 2026-05-04 23:55 | 27.40418 | -82.56512 | 31 ft | 0 kts | 134° |
| 2026-05-04 23:56 | 27.40415 | -82.56508 | 31 ft | 10 kts | 134° |
| 2026-05-04 23:56 | 27.40180 | -82.56239 | 29 ft | 84 kts | 134° |
| 2026-05-04 23:57 | 27.39632 | -82.55613 | 31 ft | 138 kts | 134° |
| 2026-05-04 23:57 | 27.38878 | -82.54754 | 309 ft | 155 kts | 133° |
| 2026-05-04 23:57 | 27.38136 | -82.53867 | 919 ft | 156 kts | 131° |
| 2026-05-04 23:57 | 27.37385 | -82.52991 | 1547 ft | 155 kts | 130° |
| 2026-05-04 23:58 | 27.36620 | -82.52116 | 1993 ft | 167 kts | 131° |
| 2026-05-04 23:58 | 27.35753 | -82.51123 | 2253 ft | 190 kts | 132° |
| 2026-05-04 23:58 | 27.34770 | -82.50004 | 2526 ft | 212 kts | 132° |
| 2026-05-04 23:58 | 27.33690 | -82.48778 | 3090 ft | 224 kts | 133° |
| 2026-05-04 23:59 | 27.32586 | -82.47531 | 3927 ft | 226 kts | 133° |
| 2026-05-04 23:59 | 27.31450 | -82.46282 | 4736 ft | 231 kts | 141° |
| 2026-05-04 23:59 | 27.30516 | -82.45699 | 5205 ft | 235 kts | 162° |
| 2026-05-04 23:59 | 27.28888 | -82.45691 | 6019 ft | 240 kts | 198° |
| 2026-05-05 00:00 | 27.27490 | -82.46713 | 6836 ft | 243 kts | 223° |
| 2026-05-05 00:00 | 27.26688 | -82.47585 | 7407 ft | 243 kts | 226° |
| 2026-05-05 00:00 | 27.25489 | -82.49745 | 8424 ft | 252 kts | 250° |
| 2026-05-05 00:00 | 27.24988 | -82.52446 | 9012 ft | 277 kts | 260° |
| 2026-05-05 00:01 | 27.24771 | -82.53900 | 9527 ft | 281 kts | 260° |
| 2026-05-05 00:01 | 27.24624 | -82.56066 | 10299 ft | 285 kts | 273° |
| 2026-05-05 00:01 | 27.25049 | -82.58247 | 11072 ft | 289 kts | 290° |
| 2026-05-05 00:01 | 27.26052 | -82.60207 | 11853 ft | 293 kts | 307° |
| 2026-05-05 00:02 | 27.27432 | -82.61905 | 12650 ft | 295 kts | 310° |
| 2026-05-05 00:02 | 27.28833 | -82.63593 | 13412 ft | 297 kts | 310° |
| 2026-05-05 00:02 | 27.30706 | -82.65859 | 14293 ft | 300 kts | 310° |
| 2026-05-05 00:02 | 27.32129 | -82.67588 | 14941 ft | 302 kts | 310° |
| 2026-05-05 00:03 | 27.33095 | -82.68762 | 15385 ft | 303 kts | 309° |
| 2026-05-05 00:03 | 27.34528 | -82.70504 | 16045 ft | 304 kts | 309° |
| 2026-05-05 00:03 | 27.35967 | -82.72257 | 16695 ft | 306 kts | 309° |
| 2026-05-05 00:03 | 27.37418 | -82.74016 | 17354 ft | 308 kts | 310° |
| 2026-05-05 00:04 | 27.39092 | -82.75549 | 17975 ft | 315 kts | 323° |
| 2026-05-05 00:04 | 27.41065 | -82.76621 | 18557 ft | 322 kts | 332° |
| 2026-05-05 00:04 | 27.43133 | -82.77598 | 19112 ft | 323 kts | 331° |
| 2026-05-05 00:04 | 27.45213 | -82.78575 | 19683 ft | 326 kts | 334° |
| 2026-05-05 00:05 | 27.47431 | -82.79227 | 19929 ft | 336 kts | 347° |
| 2026-05-05 00:05 | 27.49857 | -82.79302 | 20004 ft | 361 kts | 355° |
| 2026-05-05 00:05 | 27.52433 | -82.79217 | 20009 ft | 380 kts | 356° |
| 2026-05-05 00:05 | 27.55114 | -82.79119 | 20010 ft | 389 kts | 356° |
| 2026-05-05 00:06 | 27.57823 | -82.79009 | 20009 ft | 391 kts | 356° |
| 2026-05-05 00:06 | 27.60546 | -82.78915 | 20009 ft | 391 kts | 355° |
| 2026-05-05 00:06 | 27.63228 | -82.78868 | 20009 ft | 391 kts | 355° |
| 2026-05-05 00:06 | 27.65947 | -82.78854 | 20008 ft | 391 kts | 354° |
| 2026-05-05 00:07 | 27.68666 | -82.78854 | 20008 ft | 390 kts | 354° |
| 2026-05-05 00:07 | 27.71380 | -82.78856 | 20008 ft | 390 kts | 354° |
| 2026-05-05 00:07 | 27.74099 | -82.78856 | 20008 ft | 390 kts | 354° |
| 2026-05-05 00:07 | 27.76816 | -82.78849 | 20008 ft | 391 kts | 354° |
| 2026-05-05 00:08 | 27.79534 | -82.78834 | 20023 ft | 391 kts | 354° |
| 2026-05-05 00:08 | 27.82254 | -82.78814 | 20024 ft | 391 kts | 354° |
| 2026-05-05 00:08 | 27.84970 | -82.78795 | 20025 ft | 391 kts | 354° |
| 2026-05-05 00:08 | 27.87688 | -82.78777 | 20037 ft | 391 kts | 354° |
| 2026-05-05 00:09 | 27.90370 | -82.78759 | 20044 ft | 391 kts | 355° |
| 2026-05-05 00:09 | 27.93087 | -82.78741 | 20045 ft | 391 kts | 355° |
| 2026-05-05 00:09 | 27.95806 | -82.78723 | 20045 ft | 391 kts | 354° |
| 2026-05-05 00:09 | 27.98524 | -82.78708 | 20045 ft | 390 kts | 354° |
| 2026-05-05 00:10 | 28.01243 | -82.78690 | 20047 ft | 391 kts | 355° |
| 2026-05-05 00:10 | 28.03959 | -82.78671 | 20045 ft | 391 kts | 355° |
| 2026-05-05 00:10 | 28.06676 | -82.78651 | 20044 ft | 391 kts | 355° |
| 2026-05-05 00:10 | 28.09395 | -82.78634 | 20043 ft | 391 kts | 354° |
| 2026-05-05 00:11 | 28.12114 | -82.78618 | 20041 ft | 391 kts | 355° |
| 2026-05-05 00:11 | 28.14828 | -82.78604 | 20027 ft | 391 kts | 354° |
| 2026-05-05 00:11 | 28.17510 | -82.78591 | 20027 ft | 391 kts | 354° |
| 2026-05-05 00:11 | 28.20227 | -82.78577 | 20029 ft | 390 kts | 355° |
| 2026-05-05 00:12 | 28.22942 | -82.78560 | 20027 ft | 390 kts | 355° |
| 2026-05-05 00:12 | 28.25662 | -82.78542 | 20109 ft | 394 kts | 355° |
| 2026-05-05 00:12 | 28.28404 | -82.78524 | 20729 ft | 395 kts | 354° |
| 2026-05-05 00:12 | 28.31156 | -82.78504 | 21336 ft | 396 kts | 354° |
| 2026-05-05 00:13 | 28.33920 | -82.78486 | 21915 ft | 398 kts | 354° |
| 2026-05-05 00:13 | 28.36696 | -82.78469 | 22461 ft | 400 kts | 354° |
| 2026-05-05 00:13 | 28.39489 | -82.78452 | 22994 ft | 402 kts | 354° |
| 2026-05-05 00:13 | 28.42302 | -82.78400 | 23511 ft | 406 kts | 355° |
| 2026-05-05 00:14 | 28.45099 | -82.78228 | 23945 ft | 410 kts | 358° |
| 2026-05-05 00:14 | 28.47949 | -82.77965 | 24405 ft | 412 kts | 359° |
| 2026-05-05 00:14 | 28.50812 | -82.77661 | 24801 ft | 415 kts | 359° |
| 2026-05-05 00:14 | 28.53698 | -82.77349 | 25194 ft | 418 kts | 359° |
| 2026-05-05 00:15 | 28.56598 | -82.77048 | 25586 ft | 420 kts | 358° |
| 2026-05-05 00:15 | 28.59513 | -82.76765 | 25974 ft | 421 kts | 358° |
| 2026-05-05 00:15 | 28.62445 | -82.76495 | 26353 ft | 423 kts | 358° |
| 2026-05-05 00:15 | 28.65387 | -82.76235 | 26733 ft | 425 kts | 357° |
| 2026-05-05 00:16 | 28.68346 | -82.75979 | 27104 ft | 428 kts | 357° |
| 2026-05-05 00:16 | 28.71321 | -82.75718 | 27481 ft | 430 kts | 357° |
| 2026-05-05 00:16 | 28.74309 | -82.75453 | 27851 ft | 432 kts | 357° |
| 2026-05-05 00:16 | 28.77275 | -82.75187 | 28246 ft | 434 kts | 357° |
| 2026-05-05 00:17 | 28.80299 | -82.74915 | 28579 ft | 437 kts | 357° |
| 2026-05-05 00:17 | 28.83340 | -82.74640 | 28954 ft | 440 kts | 357° |
| 2026-05-05 00:17 | 28.86396 | -82.74363 | 29297 ft | 442 kts | 357° |
| 2026-05-05 00:17 | 28.89470 | -82.74083 | 29646 ft | 444 kts | 357° |
| 2026-05-05 00:18 | 28.92558 | -82.73800 | 29985 ft | 446 kts | 357° |
| 2026-05-05 00:18 | 28.95665 | -82.73518 | 30285 ft | 448 kts | 357° |
| 2026-05-05 00:18 | 28.98779 | -82.73236 | 30589 ft | 450 kts | 357° |
| 2026-05-05 00:18 | 29.01900 | -82.72951 | 30891 ft | 450 kts | 357° |
| 2026-05-05 00:19 | 29.05026 | -82.72663 | 31185 ft | 451 kts | 357° |
| 2026-05-05 00:19 | 29.08156 | -82.72376 | 31484 ft | 452 kts | 357° |
| 2026-05-05 00:19 | 29.11242 | -82.72093 | 31845 ft | 450 kts | 357° |
| 2026-05-05 00:19 | 29.14351 | -82.71807 | 32250 ft | 447 kts | 357° |
| 2026-05-05 00:20 | 29.17441 | -82.71523 | 32676 ft | 444 kts | 356° |
| 2026-05-05 00:20 | 29.20509 | -82.71242 | 33084 ft | 441 kts | 356° |
| 2026-05-05 00:20 | 29.23556 | -82.70966 | 33509 ft | 438 kts | 356° |
| 2026-05-05 00:20 | 29.26583 | -82.70694 | 33941 ft | 435 kts | 356° |
| 2026-05-05 00:21 | 29.29592 | -82.70425 | 34314 ft | 433 kts | 356° |
| 2026-05-05 00:21 | 29.32593 | -82.70158 | 34618 ft | 433 kts | 356° |
| 2026-05-05 00:21 | 29.35594 | -82.69890 | 34936 ft | 434 kts | 356° |
| 2026-05-05 00:21 | 29.38609 | -82.69616 | 35174 ft | 435 kts | 356° |
| 2026-05-05 00:22 | 29.41630 | -82.69344 | 35419 ft | 436 kts | 355° |
| 2026-05-05 00:22 | 29.44651 | -82.69166 | 35669 ft | 434 kts | 353° |
| 2026-05-05 00:22 | 29.47663 | -82.69109 | 35919 ft | 433 kts | 352° |
| 2026-05-05 00:22 | 29.50635 | -82.69123 | 36023 ft | 433 kts | 351° |
| 2026-05-05 00:23 | 29.53650 | -82.69164 | 36047 ft | 433 kts | 351° |
| 2026-05-05 00:23 | 29.59684 | -82.69220 | 36047 ft | 434 kts | 352° |
| 2026-05-05 00:24 | 29.65725 | -82.69198 | 36049 ft | 435 kts | 352° |
| 2026-05-05 00:24 | 29.71779 | -82.69135 | 36049 ft | 435 kts | 352° |
| 2026-05-05 00:25 | 29.77793 | -82.69092 | 36050 ft | 435 kts | 352° |
| 2026-05-05 00:25 | 29.83844 | -82.69061 | 36052 ft | 435 kts | 352° |
| 2026-05-05 00:26 | 29.89892 | -82.69035 | 36056 ft | 435 kts | 352° |
| 2026-05-05 00:26 | 29.95944 | -82.68996 | 36056 ft | 435 kts | 352° |
| 2026-05-05 00:27 | 30.01997 | -82.68943 | 36065 ft | 435 kts | 352° |
| 2026-05-05 00:27 | 30.08047 | -82.68899 | 36063 ft | 435 kts | 352° |
| 2026-05-05 00:28 | 30.14056 | -82.68859 | 36063 ft | 435 kts | 352° |
| 2026-05-05 00:28 | 30.19780 | -82.68829 | 36125 ft | 434 kts | 351° |
| 2026-05-05 00:29 | 30.25822 | -82.68793 | 36084 ft | 434 kts | 351° |
| 2026-05-05 00:29 | 30.31861 | -82.68748 | 36093 ft | 434 kts | 351° |
| 2026-05-05 00:30 | 30.37898 | -82.68716 | 36093 ft | 434 kts | 351° |
| 2026-05-05 00:30 | 30.43890 | -82.68694 | 36102 ft | 434 kts | 351° |
| 2026-05-05 00:31 | 30.49928 | -82.68650 | 36122 ft | 435 kts | 353° |
| 2026-05-05 00:31 | 30.52977 | -82.68303 | 36397 ft | 443 kts | 359° |
| 2026-05-05 00:32 | 30.65089 | -82.66340 | 37099 ft | 442 kts | 359° |
| 2026-05-05 00:33 | 30.74074 | -82.64902 | 37097 ft | 441 kts | 359° |
| 2026-05-05 00:33 | 30.80160 | -82.63924 | 37078 ft | 442 kts | 359° |
| 2026-05-05 00:34 | 30.86247 | -82.62928 | 37076 ft | 442 kts | 359° |
| 2026-05-05 00:34 | 30.92293 | -82.61938 | 37074 ft | 442 kts | 359° |
| 2026-05-05 00:35 | 30.98386 | -82.60950 | 37081 ft | 442 kts | 359° |
| 2026-05-05 00:35 | 31.04481 | -82.59966 | 37121 ft | 442 kts | 358° |
| 2026-05-05 00:36 | 31.10550 | -82.58976 | 37069 ft | 440 kts | 358° |
| 2026-05-05 00:36 | 31.16574 | -82.57998 | 37068 ft | 440 kts | 358° |
| 2026-05-05 00:37 | 31.22644 | -82.57017 | 37067 ft | 441 kts | 358° |
| 2026-05-05 00:37 | 31.28723 | -82.56024 | 37066 ft | 441 kts | 358° |
| 2026-05-05 00:38 | 31.34799 | -82.55019 | 37066 ft | 440 kts | 359° |
| 2026-05-05 00:38 | 31.40815 | -82.54023 | 37067 ft | 440 kts | 358° |
| 2026-05-05 00:39 | 31.46881 | -82.53037 | 37071 ft | 440 kts | 358° |
| 2026-05-05 00:39 | 31.52947 | -82.52042 | 37073 ft | 441 kts | 358° |
| 2026-05-05 00:40 | 31.59022 | -82.51041 | 37110 ft | 441 kts | 359° |
| 2026-05-05 00:40 | 31.65042 | -82.50051 | 37062 ft | 439 kts | 359° |
| 2026-05-05 00:41 | 31.71096 | -82.49050 | 37055 ft | 440 kts | 359° |
| 2026-05-05 00:41 | 31.77159 | -82.48049 | 37056 ft | 440 kts | 359° |
| 2026-05-05 00:42 | 31.83227 | -82.47039 | 37059 ft | 440 kts | 359° |
| 2026-05-05 00:42 | 31.89297 | -82.46030 | 37050 ft | 440 kts | 359° |
| 2026-05-05 00:43 | 31.95321 | -82.45038 | 37042 ft | 440 kts | 359° |
| 2026-05-05 00:43 | 32.01395 | -82.44035 | 37063 ft | 441 kts | 359° |
| 2026-05-05 00:44 | 32.07481 | -82.43015 | 37076 ft | 442 kts | 359° |
| 2026-05-05 00:44 | 32.13569 | -82.42006 | 37114 ft | 442 kts | 360° |
| 2026-05-05 00:45 | 32.19631 | -82.41002 | 37100 ft | 443 kts | 360° |
| 2026-05-05 00:45 | 32.25733 | -82.39975 | 37100 ft | 443 kts | 0° |
| 2026-05-05 00:46 | 32.31852 | -82.38945 | 37079 ft | 445 kts | 0° |
| 2026-05-05 00:46 | 32.37992 | -82.37927 | 37044 ft | 446 kts | 0° |
| 2026-05-05 00:47 | 32.44151 | -82.36900 | 37068 ft | 448 kts | 1° |
| 2026-05-05 00:47 | 32.50283 | -82.35873 | 37057 ft | 449 kts | 1° |
| 2026-05-05 00:48 | 32.56471 | -82.34835 | 37055 ft | 449 kts | 1° |
| 2026-05-05 00:48 | 32.62661 | -82.33786 | 37056 ft | 450 kts | 1° |
| 2026-05-05 00:49 | 32.68860 | -82.32734 | 37083 ft | 450 kts | 1° |
| 2026-05-05 00:49 | 32.75024 | -82.31684 | 37070 ft | 451 kts | 1° |
| 2026-05-05 00:50 | 32.81188 | -82.30069 | 37064 ft | 458 kts | 9° |
| 2026-05-05 00:50 | 32.87312 | -82.27961 | 37060 ft | 458 kts | 9° |
| 2026-05-05 00:51 | 32.93439 | -82.25844 | 37081 ft | 459 kts | 10° |
| 2026-05-05 00:51 | 32.99528 | -82.23740 | 37069 ft | 459 kts | 10° |
| 2026-05-05 00:52 | 33.05661 | -82.21627 | 37061 ft | 459 kts | 10° |
| 2026-05-05 00:52 | 33.11795 | -82.19498 | 37059 ft | 459 kts | 10° |
| 2026-05-05 00:53 | 33.17925 | -82.17365 | 37058 ft | 459 kts | 10° |
| 2026-05-05 00:53 | 33.24060 | -82.15237 | 37065 ft | 459 kts | 10° |
| 2026-05-05 00:54 | 33.30152 | -82.13122 | 37064 ft | 459 kts | 10° |
| 2026-05-05 00:54 | 33.36027 | -82.11063 | 37082 ft | 465 kts | 10° |
| 2026-05-05 00:55 | 33.45985 | -82.07583 | 37060 ft | 479 kts | 10° |
| 2026-05-05 00:55 | 33.49196 | -82.06462 | 37065 ft | 482 kts | 11° |
| 2026-05-05 00:56 | 33.55620 | -82.04202 | 37055 ft | 470 kts | 11° |
| 2026-05-05 00:56 | 33.61791 | -82.02017 | 37060 ft | 459 kts | 10° |
| 2026-05-05 00:57 | 33.67866 | -81.99890 | 37055 ft | 457 kts | 10° |
| 2026-05-05 00:57 | 33.73971 | -81.97749 | 37058 ft | 457 kts | 10° |
| 2026-05-05 00:58 | 33.80074 | -81.95554 | 36827 ft | 459 kts | 12° |
| 2026-05-05 00:58 | 33.83098 | -81.94292 | 36567 ft | 461 kts | 14° |
| 2026-05-05 00:58 | 33.86105 | -81.92928 | 36310 ft | 463 kts | 15° |
| 2026-05-05 00:58 | 33.89108 | -81.91512 | 36056 ft | 464 kts | 16° |
| 2026-05-05 00:59 | 33.92073 | -81.90103 | 35808 ft | 465 kts | 16° |
| 2026-05-05 00:59 | 33.95082 | -81.88694 | 35279 ft | 466 kts | 16° |
| 2026-05-05 00:59 | 33.98123 | -81.87274 | 34425 ft | 471 kts | 17° |
| 2026-05-05 00:59 | 34.01187 | -81.85829 | 33511 ft | 475 kts | 17° |
| 2026-05-05 01:00 | 34.04212 | -81.84289 | 33100 ft | 470 kts | 22° |
| 2026-05-05 01:00 | 34.07040 | -81.82321 | 32558 ft | 469 kts | 27° |
| 2026-05-05 01:00 | 34.09816 | -81.80289 | 32031 ft | 464 kts | 27° |
| 2026-05-05 01:00 | 34.12566 | -81.78280 | 31537 ft | 460 kts | 27° |
| 2026-05-05 01:01 | 34.15294 | -81.76294 | 31025 ft | 453 kts | 27° |
| 2026-05-05 01:01 | 34.17937 | -81.74376 | 30172 ft | 446 kts | 27° |
| 2026-05-05 01:01 | 34.20578 | -81.72464 | 29207 ft | 439 kts | 27° |
| 2026-05-05 01:01 | 34.23181 | -81.70579 | 28246 ft | 433 kts | 27° |
| 2026-05-05 01:02 | 34.25745 | -81.68723 | 27322 ft | 427 kts | 27° |
| 2026-05-05 01:02 | 34.28277 | -81.66887 | 26446 ft | 421 kts | 27° |
| 2026-05-05 01:02 | 34.30767 | -81.65074 | 25621 ft | 415 kts | 27° |
| 2026-05-05 01:02 | 34.33228 | -81.63281 | 24839 ft | 410 kts | 27° |
| 2026-05-05 01:03 | 34.35653 | -81.61512 | 24168 ft | 407 kts | 27° |
| 2026-05-05 01:03 | 34.38042 | -81.59769 | 23804 ft | 404 kts | 27° |
| 2026-05-05 01:03 | 34.40432 | -81.58020 | 23247 ft | 398 kts | 27° |
| 2026-05-05 01:03 | 34.42795 | -81.56292 | 22420 ft | 396 kts | 27° |
| 2026-05-05 01:04 | 34.45137 | -81.54580 | 21911 ft | 388 kts | 27° |
| 2026-05-05 01:04 | 34.49727 | -81.51213 | 21397 ft | 385 kts | 28° |
| 2026-05-05 01:04 | 34.51985 | -81.49470 | 21004 ft | 385 kts | 30° |
| 2026-05-05 01:05 | 34.54219 | -81.47686 | 20299 ft | 383 kts | 30° |
| 2026-05-05 01:05 | 34.56419 | -81.45900 | 19834 ft | 375 kts | 31° |
| 2026-05-05 01:05 | 34.58503 | -81.44199 | 19678 ft | 358 kts | 31° |
| 2026-05-05 01:05 | 34.60552 | -81.42538 | 19287 ft | 351 kts | 30° |
| 2026-05-05 01:06 | 34.62565 | -81.40922 | 18987 ft | 345 kts | 30° |
| 2026-05-05 01:06 | 34.64574 | -81.39324 | 18642 ft | 344 kts | 30° |
| 2026-05-05 01:06 | 34.66576 | -81.37735 | 18208 ft | 345 kts | 30° |
| 2026-05-05 01:06 | 34.68585 | -81.36142 | 17795 ft | 344 kts | 30° |
| 2026-05-05 01:07 | 34.70572 | -81.34562 | 17441 ft | 340 kts | 30° |
| 2026-05-05 01:07 | 34.72550 | -81.32987 | 17044 ft | 338 kts | 30° |
| 2026-05-05 01:07 | 34.74510 | -81.31423 | 16577 ft | 338 kts | 30° |
| 2026-05-05 01:07 | 34.76464 | -81.29863 | 16290 ft | 333 kts | 30° |
| 2026-05-05 01:08 | 34.78368 | -81.28340 | 15912 ft | 332 kts | 30° |
| 2026-05-05 01:08 | 34.80265 | -81.26747 | 15536 ft | 331 kts | 36° |
| 2026-05-05 01:08 | 34.81965 | -81.24872 | 15062 ft | 329 kts | 40° |
| 2026-05-05 01:08 | 34.83633 | -81.22975 | 14558 ft | 327 kts | 40° |
| 2026-05-05 01:09 | 34.85282 | -81.21095 | 14059 ft | 324 kts | 40° |
| 2026-05-05 01:09 | 34.86918 | -81.19230 | 13610 ft | 320 kts | 41° |
| 2026-05-05 01:09 | 34.88527 | -81.17393 | 13274 ft | 316 kts | 41° |
| 2026-05-05 01:09 | 34.90133 | -81.15562 | 12965 ft | 316 kts | 41° |
| 2026-05-05 01:10 | 34.91741 | -81.13733 | 12472 ft | 317 kts | 41° |
| 2026-05-05 01:10 | 34.93333 | -81.11922 | 12078 ft | 317 kts | 41° |
| 2026-05-05 01:10 | 34.94948 | -81.10082 | 11674 ft | 317 kts | 41° |
| 2026-05-05 01:10 | 34.96546 | -81.08260 | 11300 ft | 313 kts | 41° |
| 2026-05-05 01:11 | 34.98234 | -81.06610 | 10754 ft | 310 kts | 28° |
| 2026-05-05 01:11 | 35.00191 | -81.05558 | 10218 ft | 306 kts | 12° |
| 2026-05-05 01:11 | 35.02262 | -81.05177 | 9766 ft | 298 kts | 357° |
| 2026-05-05 01:11 | 35.04313 | -81.05316 | 9326 ft | 293 kts | 353° |
| 2026-05-05 01:12 | 35.06338 | -81.05495 | 8917 ft | 291 kts | 353° |
| 2026-05-05 01:12 | 35.08325 | -81.05668 | 8502 ft | 289 kts | 353° |
| 2026-05-05 01:12 | 35.10334 | -81.05842 | 8085 ft | 291 kts | 353° |
| 2026-05-05 01:12 | 35.12358 | -81.06022 | 7664 ft | 292 kts | 353° |
| 2026-05-05 01:13 | 35.14378 | -81.06203 | 7317 ft | 291 kts | 353° |
| 2026-05-05 01:13 | 35.16388 | -81.06383 | 7038 ft | 288 kts | 353° |
| 2026-05-05 01:13 | 35.18389 | -81.06563 | 6549 ft | 288 kts | 353° |
| 2026-05-05 01:13 | 35.20383 | -81.06741 | 6066 ft | 286 kts | 353° |
| 2026-05-05 01:14 | 35.22358 | -81.06915 | 5656 ft | 284 kts | 353° |
| 2026-05-05 01:14 | 35.24327 | -81.07088 | 5263 ft | 284 kts | 353° |
| 2026-05-05 01:14 | 35.26299 | -81.07262 | 4864 ft | 285 kts | 353° |
| 2026-05-05 01:14 | 35.28254 | -81.07436 | 4460 ft | 287 kts | 353° |
| 2026-05-05 01:15 | 35.30252 | -81.07616 | 4053 ft | 289 kts | 353° |
| 2026-05-05 01:15 | 35.32257 | -81.07794 | 3727 ft | 285 kts | 353° |
| 2026-05-05 01:15 | 35.34160 | -81.07957 | 3624 ft | 263 kts | 353° |
| 2026-05-05 01:15 | 35.35914 | -81.08070 | 3544 ft | 243 kts | 1° |
| 2026-05-05 01:16 | 35.37424 | -81.07420 | 3490 ft | 225 kts | 41° |
| 2026-05-05 01:16 | 35.38271 | -81.05981 | 3468 ft | 198 kts | 76° |
| 2026-05-05 01:16 | 35.38624 | -81.04436 | 3405 ft | 185 kts | 80° |
| 2026-05-05 01:16 | 35.38949 | -81.02965 | 3349 ft | 173 kts | 81° |
| 2026-05-05 01:17 | 35.39255 | -81.01570 | 3300 ft | 167 kts | 81° |
| 2026-05-05 01:17 | 35.39550 | -81.00205 | 3258 ft | 164 kts | 83° |
| 2026-05-05 01:17 | 35.39542 | -80.98873 | 3237 ft | 152 kts | 112° |
| 2026-05-05 01:17 | 35.39101 | -80.97757 | 3197 ft | 142 kts | 137° |
| 2026-05-05 01:18 | 35.38379 | -80.97004 | 3160 ft | 133 kts | 159° |
| 2026-05-05 01:18 | 35.37508 | -80.96739 | 3137 ft | 131 kts | 180° |
| 2026-05-05 01:18 | 35.36591 | -80.96595 | 3102 ft | 133 kts | 178° |
| 2026-05-05 01:18 | 35.35677 | -80.96475 | 3063 ft | 134 kts | 179° |
| 2026-05-05 01:19 | 35.34745 | -80.96374 | 3010 ft | 135 kts | 179° |
| 2026-05-05 01:19 | 35.33811 | -80.96282 | 2885 ft | 134 kts | 180° |
| 2026-05-05 01:19 | 35.32880 | -80.96197 | 2737 ft | 134 kts | 180° |
| 2026-05-05 01:19 | 35.31952 | -80.96114 | 2567 ft | 134 kts | 180° |
| 2026-05-05 01:20 | 35.31024 | -80.96033 | 2398 ft | 134 kts | 179° |
| 2026-05-05 01:20 | 35.30096 | -80.95952 | 2218 ft | 133 kts | 180° |
| 2026-05-05 01:20 | 35.29172 | -80.95872 | 2053 ft | 133 kts | 180° |
| 2026-05-05 01:20 | 35.28252 | -80.95792 | 1876 ft | 133 kts | 180° |
| 2026-05-05 01:21 | 35.27345 | -80.95714 | 1704 ft | 133 kts | 179° |
| 2026-05-05 01:21 | 35.26417 | -80.95633 | 1486 ft | 135 kts | 178° |
| 2026-05-05 01:21 | 35.25487 | -80.95554 | 1319 ft | 133 kts | 178° |
| 2026-05-05 01:21 | 35.24558 | -80.95473 | 1115 ft | 135 kts | 177° |
| 2026-05-05 01:22 | 35.23622 | -80.95384 | 965 ft | 135 kts | 177° |
| 2026-05-05 01:22 | 35.22684 | -80.95313 | 801 ft | 135 kts | 177° |
| 2026-05-05 01:22 | 35.21789 | -80.95241 | 742 ft | 113 kts | 175° |
| 2026-05-05 01:22 | 35.21308 | -80.95196 | 738 ft | 30 kts | 175° |
| 2026-05-05 01:23 | 35.21174 | -80.95180 | 736 ft | 12 kts | 163° |
| 2026-05-05 01:23 | 35.21153 | -80.95090 | 734 ft | 9 kts | 87° |
| 2026-05-05 01:23 | 35.21156 | -80.95056 | 732 ft | 0 kts | 82° |
| 2026-05-05 01:24 | 35.21156 | -80.95052 | 732 ft | 3 kts | 83° |
| 2026-05-05 01:25 | 35.21160 | -80.94976 | 732 ft | 12 kts | 81° |
| 2026-05-05 01:25 | 35.21208 | -80.94883 | 732 ft | 15 kts | 49° |
| 2026-05-05 01:25 | 35.21279 | -80.94778 | 732 ft | 17 kts | 57° |
| 2026-05-05 01:25 | 35.21323 | -80.94631 | 732 ft | 20 kts | 72° |
| 2026-05-05 01:26 | 35.21411 | -80.94485 | 732 ft | 23 kts | 50° |
| 2026-05-05 01:26 | 35.21519 | -80.94335 | 732 ft | 23 kts | 49° |
| 2026-05-05 01:26 | 35.21606 | -80.94225 | 732 ft | 7 kts | 14° |
| 2026-05-05 01:26 | 35.21636 | -80.94179 | 732 ft | 8 kts | 61° |
| 2026-05-05 01:27 | 35.21688 | -80.94105 | 732 ft | 15 kts | 50° |
| 2026-05-05 01:27 | 35.21753 | -80.94014 | 731 ft | 15 kts | 49° |
| 2026-05-05 01:27 | 35.21844 | -80.94031 | 732 ft | 18 kts | 311° |
| 2026-05-05 01:27 | 35.21930 | -80.94136 | 732 ft | 13 kts | 317° |
| 2026-05-05 01:28 | 35.21970 | -80.94211 | 732 ft | 5 kts | 274° |
| 2026-05-05 01:28 | 35.21971 | -80.94227 | 732 ft | 0 kts | 279° |